Peter Schäfer

Recruteur en chef - Hamburger SV
17 Avr 2029
Mardi
Processus

Personnalité

Adaptabilité (7) Ambition (1) Controverse (5) Loyauté (19) Pression (19) Professionnalisme (3) Sportivité (9) Tempérament (15)

Profil

Style d'entraînement Démocratique
Diplôme National A
Détermination 11
Gestion des joueurs 9
Motivation 9
Discipline 12
Satisfaction professionnelle
100%
Fatigue
0%
Rôle Recruteur en chef
Salaire 83.3K p/s
Contrat 14.03.2030

Performance

Comportement Bon
Efficacité de l'entraînement
61%
Développement des joueurs
35%
Prévention des blessures
50%
Mise en place tactique
60%

Événements récents

Anniversaire 56j

Suivi en cours

149
Joueur Club Statut Capacité Confiance Observé Dernière observation Dernier vote
Honest Ahanor Udinese Actif 141 / 145 40% 4 29.01.2029 -
Buba Sangaré Elche Actif 135 / 142 40% 2 29.01.2029 -
Eliesse Ben Seghir Bayer Leverkusen Actif 141 / 151 76% 1 29.01.2029 Approuver
Martín Jiménez Universidad de Concepcion Actif 109 / 114 40% 1 29.01.2029 -
Mario Vušković Union Berlin Perdu 131 / 138 76% 1 22.01.2029 Approuver
Jussef Nasrawe SV Ried Actif 109 / 114 40% 2 15.01.2029 -
Jorge Salinas Racing Santander Actif 134 / 140 40% 1 15.01.2029 -
Mousa Mignolet Vitesse Actif 107 / 118 40% 1 15.01.2029 -
Aaron Zehnter VfL Wolfsburg Actif 139 / 143 76% 1 08.01.2029 Approuver
Jannik Huth VfL Wolfsburg Perdu 124 / 124 76% 1 07.01.2029 Approuver
Shane Nti Chesterfield Actif 112 / 122 40% 1 06.01.2029 -
Lisandro Piñero Banfield Actif 125 / 127 40% 1 06.01.2029 -
Lewi Richards Walsall Actif 103 / 109 40% 1 02.01.2029 -
Tobiáš Pališčák AS Trencin Actif 105 / 114 40% 1 02.01.2029 -
Andrej Bačanin Vaduz Actif 122 / 123 40% 1 02.01.2029 -
Franculino Ajax Actif 151 / 151 40% 1 01.01.2029 -
Kauã Elias Shakhtar Actif 138 / 146 40% 1 01.01.2029 -
Vivaldo Semedo Watford Actif 126 / 129 40% 1 01.01.2029 -
Joris Boguo SV Ried Actif 103 / 109 40% 1 01.01.2029 -
Aarón Ochoa Málaga Perdu 124 / 129 40% 1 01.01.2029 -
Andrej Bačanin Vaduz Perdu 116 / 126 40% 1 01.01.2029 -
Oliver Sorg SV Ried Actif 112 / 116 40% 2 28.08.2028 -
Giovanni Cantizano Rosario Central Actif 114 / 130 40% 1 28.08.2028 -
Yago Noal Santa Cruz Actif 112 / 114 40% 1 28.08.2028 -
Gabriel Mec Ceará Actif 116 / 123 40% 1 23.08.2028 -
Sebastian Rodriguez Minnesota United FC Actif 112 / 128 40% 1 23.08.2028 -
Alessio Cacciamani Torino Actif 123 / 131 40% 1 14.08.2028 -
Rodrigo Mora AS Roma Actif 151 / 155 40% 1 14.08.2028 -
Alexander Røssing-Lelesiit St. Pauli Actif 123 / 129 40% 1 07.08.2028 -
Babis Kostoulas Manchester City Actif 153 / 151 40% 2 31.07.2028 -
Love Arrhov St. Pauli Actif 122 / 135 40% 1 31.07.2028 -
Victor Aznar Cádiz Actif 138 / 140 40% 1 24.07.2028 -
Jorthy Mokio Ajax Actif 139 / 137 40% 1 17.07.2028 -
Leo Pecover Rotherham United Actif 101 / 114 40% 1 17.07.2028 -
André Miranda Porto Actif 118 / 123 40% 1 10.07.2028 -
Sebastian Lodberg Pergolettese Actif 102 / 117 40% 1 10.07.2028 -
Noah Tamsamani Vitesse Actif 100 / 110 40% 1 10.07.2028 -
Illaijh de Ruijter ADO Den Haag Actif 124 / 129 40% 2 26.06.2028 -
Harry Amass Manchester United Actif 147 / 146 40% 1 20.06.2028 -
Gerardo Del Vecchio Rah Ahan Actif 114 / 110 40% 1 20.06.2028 -
Daniel Banjaqui Benfica Actif 123 / 133 40% 1 20.06.2028 -
Neil Volken Zurich Actif 103 / 113 40% 2 12.06.2028 -
Josh King Fulham Actif 140 / 155 40% 1 12.06.2028 -
Moussa Yeo Swansea City Actif 133 / 134 40% 2 03.06.2028 -
Emersonn Ipswich Town Actif 132 / 138 40% 1 03.06.2028 -
Filipe Sousa Porto Actif 105 / 106 40% 1 03.06.2028 -
Pau Cubarsí Barcelona Actif 162 / 160 40% 1 03.06.2028 -
Martim Cunha Porto Actif 109 / 110 40% 3 01.06.2028 -
Alejandro Iturbe Elche Actif 145 / 142 40% 1 01.06.2028 -
Deniz Ertaş Heidenheim Actif 125 / 131 40% 1 01.06.2028 -
Christos Mandas Lazio Actif 144 / 148 40% 1 31.01.2028 -
James Trafford Leeds United Actif 153 / 155 40% 1 24.01.2028 -
Jonmi Magunagoitia Eibar Actif 141 / 139 40% 1 10.01.2028 -
Assane Diao Como Actif 156 / 149 40% 1 01.01.2028 -
Luca Bombino San Diego Football Club Actif 99 / 114 40% 1 30.08.2027 -
Raphael Posch Mattersburg Actif 115 / 117 40% 1 30.08.2027 -
Frederik Ihler IF Elfsborg Actif 106 / 111 40% 1 30.08.2027 -
Felipe Faúndez O'Higgins Actif 100 / 101 40% 1 28.08.2027 -
Mohamed Moussa Koïta Persijap Actif 100 / 107 40% 3 27.08.2027 -
Jorrel Hato Chelsea Actif 151 / 156 40% 1 26.08.2027 -
Luis Otávio Sporting Kansas City Actif 120 / 115 40% 1 26.08.2027 -
Facundo Balatti Fenix Actif 100 / 113 40% 1 22.08.2027 -
Abdoul Djire Ararat Actif 94 / 106 40% 1 21.08.2027 -
Harbor Miller LA Galaxy Actif 95 / 94 40% 1 21.08.2027 -
Alexis Fretes Libertad Actif 110 / 111 40% 2 20.08.2027 -
Florent Hajdini Wolfsberger AC Actif 96 / 102 40% 1 18.08.2027 -
Azizbek To'lqinbekov Sogdiana Actif 86 / 111 40% 3 15.08.2027 -
Abdoulie Tamba GIF Sundsvall Actif 103 / 100 40% 2 15.08.2027 -
Mio Zimmermann Luzern Actif 98 / 110 40% 1 14.08.2027 -
Marwin Schmitz St. Pauli Actif 96 / 105 40% 1 13.08.2027 -
Petik Manukyan Urartu Actif 96 / 102 40% 1 11.08.2027 -
Bahia Santos Actif 111 / 123 40% 1 10.08.2027 -
Kevin Kelsy Portland Timbers Actif 121 / 123 40% 2 09.08.2027 -
Luis Palacios Tigres Actif 105 / 109 40% 2 01.08.2027 -
Will Lankshear Middlesbrough Actif 130 / 124 40% 5 30.07.2027 -
Archie Goodwin Charlotte Football Club Actif 99 / 101 40% 1 29.07.2027 -
Alexandre Duville-Parsemain Moreirense Actif 118 / 114 40% 2 28.07.2027 -
Abdoulie Ceesay St. Pauli Actif 114 / 118 40% 6 26.07.2027 -
Denys Smetana Metalurh Zaporizhzhia Actif 102 / 111 40% 3 26.07.2027 -
Juan Manuel Villalba Estudiantes Actif 110 / 124 40% 1 26.07.2027 -
Vasyl Bundash Metalurh Zaporizhzhia Actif 105 / 115 40% 4 23.07.2027 -
Gadiel Paoli General Caballero Actif 92 / 97 40% 1 23.07.2027 -
Dženan Pejčinović VfB Stuttgart Actif 122 / 126 40% 5 20.07.2027 -
Filipe Gabriel Depor Actif 92 / 94 40% 2 19.07.2027 -
Jacob Peter Hödl Sturm Graz Perdu 119 / 126 40% 1 19.07.2027 -
Arkaitz Mariezkurrena Real Sociedad Actif 114 / 128 40% 2 14.07.2027 -
Lars Villiger Luzern Actif 114 / 118 40% 3 12.07.2027 -
Moctar Diop KAA Gent Actif 118 / 124 40% 5 11.07.2027 -
Peter Itodo Metalist Actif 119 / 109 40% 2 11.07.2027 -
Thomas Kastanaras FC Augsburg Actif 114 / 114 40% 3 10.07.2027 -
García Pascual Cádiz Actif 129 / 121 40% 4 07.07.2027 -
Rafiu Durosinmi Racing Genk Actif 128 / 136 40% 3 07.07.2027 -
Maurits Kjærgaard Red Bull Salzburg Actif 136 / 134 40% 5 05.07.2027 -
Tyreece Campbell Charlton Athletic Actif 119 / 119 40% 3 05.07.2027 -
Youssuf Sylla Jagiellonia Actif 107 / 119 40% 1 26.06.2027 -
Daniel Vernattus Metalist Actif 99 / 107 40% 1 24.06.2027 -
Mohamadou Kanté West Ham United Actif 122 / 125 40% 1 24.06.2027 -
Sanel Šaljić Austria Wien Actif 110 / 129 40% 1 23.06.2027 -
Paulo Cardoso Sporting CP Actif 95 / 98 40% 2 22.06.2027 -
Joel Medina Osasuna Actif 108 / 126 40% 2 20.06.2027 -
Matheus Gonçalves Al-Ahli Actif 125 / 126 40% 1 18.06.2027 -
Patrick Mainka Heidenheim Actif 139 / 140 69% 1 14.06.2027 Approuver
Giorgi Kvernadze Frosinone Actif 119 / 119 40% 1 06.06.2027 -
Olívio Tomé Benfica Actif 103 / 117 40% 2 05.06.2027 -
Juan-José Perea Zurich Actif 115 / 125 40% 3 28.01.2027 -
Richard Koné Queens Park Rangers Actif 129 / 121 40% 2 28.01.2027 -
Ousmane Camara Castellón Actif 123 / 119 40% 1 28.01.2027 -
Álex Forés Burgos Actif 129 / 131 40% 2 27.01.2027 -
Meschack Elia Alanyaspor Actif 129 / 111 40% 2 27.01.2027 -
Keita Kosugi Eintracht Frankfurt Actif 117 / 135 40% 1 26.01.2027 -
Davis Keillor-Dunn Wrexham Actif 122 / 121 40% 1 23.01.2027 -
Hugo Cuypers Monterrey Actif 137 / 125 40% 1 23.01.2027 -
Santiago Sosa Yung Valencia Actif 114 / 131 40% 1 23.01.2027 -
Arthur Cabral Botafogo Actif 138 / 128 40% 1 21.01.2027 -
Egas Cacintura Akhmat Grozny Actif 129 / 131 40% 1 20.01.2027 -
Claudio Spinelli Vasco da Gama Actif 128 / 122 40% 1 18.01.2027 -
Donis Avdijaj Wolfsberger AC Actif 114 / 115 40% 1 16.01.2027 -
Hwang Hee-Chan Wolverhampton Actif 142 / 136 40% 1 16.01.2027 -
Yorbe Vertessen Red Bull Salzburg Actif 122 / 127 40% 3 13.01.2027 -
Samuel Essende Young Boys Actif 130 / 131 40% 2 09.01.2027 -
Joaquin Seys Club Brugge Actif 120 / 133 40% 1 07.01.2027 -
Oscar Kabwit Luzern Actif 109 / 118 40% 1 06.01.2027 -
Diego Rossi Monterrey Actif 131 / 127 40% 1 31.08.2026 Plus d'infos
João Klauss LA Galaxy Actif 138 / 125 40% 1 30.08.2026 -
Timo Werner San Jose Earthquakes Actif 136 / 118 40% 2 29.08.2026 -
Dani Raba Valencia Actif 137 / 134 40% 1 29.08.2026 -
Miguel Merentiel Boca Juniors Actif 139 / 126 40% 2 28.08.2026 -
Indiana Vassilev Philadelphia Union Actif 106 / 117 40% 1 26.08.2026 -
Leonardo Campana New England Revolution Actif 133 / 126 40% 1 25.08.2026 -
Matteo di Giusto Luzern Actif 120 / 129 40% 2 23.08.2026 -
Oli McBurnie Hull City Actif 126 / 137 40% 1 23.08.2026 -
Rilind Nivokazi Sion Actif 115 / 115 40% 3 21.08.2026 -
Philippe Keny Zurich Actif 126 / 118 40% 3 18.08.2026 -
Ilyas Chouaref Sion Actif 127 / 121 40% 1 18.08.2026 -
Morgan Guilavogui Real Salt Lake Actif 131 / 119 40% 1 16.08.2026 -
Josias Lukembila Sion Actif 117 / 122 40% 1 15.08.2026 -
Ibrahim Salah Basel Actif 118 / 119 40% 1 15.08.2026 -
Caleb Yirenkyi Coventry City Actif 135 / 133 40% 1 15.08.2026 -
Samuel Marques Grasshopper Actif 108 / 117 40% 1 14.08.2026 -
Alexey Miranchuk Atlanta United FC Actif 153 / 135 40% 2 12.08.2026 -
Fodé Sylla Sion Actif 115 / 123 40% 1 12.08.2026 -
Luca Orellano Monterrey Actif 124 / 136 40% 1 10.08.2026 -
Pep Biel Charlotte Football Club Actif 140 / 125 40% 1 09.08.2026 -
Mohamed Bangoura Zurich Actif 95 / 100 40% 1 07.08.2026 -
Edmund Baidoo Red Bull Salzburg Actif 113 / 123 40% 1 07.08.2026 -
Jesus Ferreira Seattle Sounders Actif 131 / 133 40% 1 05.08.2026 -
Tim Lemperle TSG Hoffenheim Actif 139 / 134 40% 1 05.08.2026 -
Arjan Malić Sturm Graz Actif 113 / 122 40% 1 04.08.2026 -
Julian von Moos Grasshopper Actif 106 / 120 40% 1 01.08.2026 -